createdAt,value
2023-05-14T00:02:26.739Z,100748.59
2023-05-14T00:04:54.424Z,100748.79
2023-05-14T00:07:22.063Z,100744.13
2023-05-14T00:09:49.685Z,100750.39
2023-05-14T00:12:17.295Z,100745.17
2023-05-14T00:14:44.919Z,100745.75
2023-05-14T00:17:12.518Z,100744.16
2023-05-14T00:19:41.901Z,100739.88
2023-05-14T00:22:09.661Z,100743.05
2023-05-14T00:24:37.369Z,100743.90
2023-05-14T00:27:05.274Z,100742.11
2023-05-14T00:29:32.924Z,100746.92
2023-05-14T00:32:00.869Z,100748.61
2023-05-14T00:34:28.574Z,100749.50
2023-05-14T00:36:56.171Z,100744.80
2023-05-14T00:39:23.803Z,100745.17
2023-05-14T00:41:51.521Z,100741.46
2023-05-14T00:44:19.095Z,100741.73
2023-05-14T00:46:47.230Z,100738.60
2023-05-14T00:49:15.917Z,100737.66
2023-05-14T00:51:46.846Z,100736.85
2023-05-14T00:54:16.736Z,100736.61
2023-05-14T00:56:46.583Z,100734.53
2023-05-14T00:59:14.251Z,100732.92
2023-05-14T01:01:42.475Z,100728.74
2023-05-14T01:04:11.645Z,100728.13
2023-05-14T01:06:55.198Z,100728.60
2023-05-14T01:09:32.423Z,100728.18
2023-05-14T01:12:32.015Z,100722.09
2023-05-14T01:15:18.953Z,100725.04
2023-05-14T01:17:57.807Z,100727.31
2023-05-14T01:20:26.883Z,100725.37
2023-05-14T01:22:54.523Z,100724.55
2023-05-14T01:25:22.115Z,100727.27
2023-05-14T01:27:52.680Z,100722.32
2023-05-14T01:30:31.862Z,100722.16
2023-05-14T01:33:06.166Z,100726.13
2023-05-14T01:35:33.969Z,100721.71
2023-05-14T01:38:04.951Z,100722.39
2023-05-14T01:40:34.069Z,100723.79
2023-05-14T01:43:02.452Z,100719.98
2023-05-14T01:45:30.606Z,100719.18
2023-05-14T01:47:58.410Z,100718.34
2023-05-14T01:50:26.323Z,100711.33
2023-05-14T01:52:56.392Z,100709.86
2023-05-14T01:55:25.466Z,100709.80
2023-05-14T01:57:53.607Z,100714.27
2023-05-14T02:00:23.878Z,100716.44
2023-05-14T02:02:51.865Z,100718.18
2023-05-14T02:05:19.684Z,100713.27
2023-05-14T02:07:47.320Z,100716.85
2023-05-14T02:10:14.940Z,100713.42
2023-05-14T02:12:42.591Z,100713.71
2023-05-14T02:15:11.105Z,100715.10
2023-05-14T02:17:38.844Z,100712.30
2023-05-14T02:20:07.626Z,100715.44
2023-05-14T02:22:35.398Z,100710.14
2023-05-14T02:25:03.186Z,100711.05
2023-05-14T02:27:30.813Z,100706.36
2023-05-14T02:30:00.755Z,100705.21
2023-05-14T02:32:28.683Z,100704.60
2023-05-14T02:34:56.451Z,100702.35
2023-05-14T02:37:24.058Z,100699.19
2023-05-14T02:39:53.298Z,100698.23
2023-05-14T02:42:23.591Z,100697.59
2023-05-14T02:44:52.228Z,100694.11
2023-05-14T02:47:19.898Z,100693.62
2023-05-14T02:49:47.544Z,100693.27
2023-05-14T02:52:15.140Z,100691.89
2023-05-14T02:54:42.995Z,100691.33
2023-05-14T02:57:10.651Z,100689.06
2023-05-14T02:59:38.251Z,100691.75
2023-05-14T03:02:06.985Z,100688.09
2023-05-14T03:04:35.256Z,100687.86
2023-05-14T03:07:03.022Z,100687.25
2023-05-14T03:09:30.623Z,100684.52
2023-05-14T03:11:58.273Z,100686.21
2023-05-14T03:14:26.001Z,100685.83
2023-05-14T03:16:53.659Z,100687.64
2023-05-14T03:19:21.422Z,100684.98
2023-05-14T03:21:50.008Z,100688.03
2023-05-14T03:24:17.604Z,100689.88
2023-05-14T03:26:45.236Z,100689.27
2023-05-14T03:29:12.885Z,100686.63
2023-05-14T03:31:41.394Z,100686.15
2023-05-14T03:34:09.249Z,100684.48
2023-05-14T03:36:38.818Z,100681.73
2023-05-14T03:39:09.689Z,100680.88
2023-05-14T03:41:37.654Z,100677.39
2023-05-14T03:44:06.233Z,100680.19
2023-05-14T03:46:33.925Z,100679.15
2023-05-14T03:49:01.672Z,100679.96
2023-05-14T03:51:29.527Z,100677.33
2023-05-14T03:54:01.056Z,100676.71
2023-05-14T03:56:28.788Z,100680.24
2023-05-14T03:58:56.406Z,100680.68
2023-05-14T04:01:24.089Z,100675.02
2023-05-14T04:03:51.894Z,100673.70
2023-05-14T04:06:19.719Z,100675.22
2023-05-14T04:08:47.323Z,100672.71
2023-05-14T04:11:14.971Z,100674.34
2023-05-14T04:13:43.045Z,100678.91
2023-05-14T04:16:11.388Z,100673.89
2023-05-14T04:18:39.181Z,100673.74
2023-05-14T04:21:06.854Z,100672.25
2023-05-14T04:23:34.520Z,100672.95
2023-05-14T04:26:02.130Z,100673.61
2023-05-14T04:28:29.702Z,100667.20
2023-05-14T04:30:57.842Z,100672.94
2023-05-14T04:33:25.515Z,100676.64
2023-05-14T04:35:54.240Z,100674.64
2023-05-14T04:38:21.820Z,100676.83
2023-05-14T04:40:49.435Z,100675.95
2023-05-14T04:43:17.474Z,100673.00
2023-05-14T04:45:45.677Z,100668.73
2023-05-14T04:48:13.311Z,100669.23
2023-05-14T04:50:41.017Z,100663.02
2023-05-14T04:53:08.671Z,100662.20
2023-05-14T04:55:36.520Z,100662.27
2023-05-14T04:58:04.139Z,100663.60
2023-05-14T05:00:33.268Z,100659.25
2023-05-14T05:03:00.996Z,100663.16
2023-05-14T05:05:28.660Z,100659.77
2023-05-14T05:07:56.330Z,100656.86
2023-05-14T05:10:24.250Z,100657.13
2023-05-14T05:12:52.231Z,100648.58
2023-05-14T05:15:19.867Z,100644.72
2023-05-14T05:17:47.525Z,100644.58
2023-05-14T05:20:15.345Z,100645.05
2023-05-14T05:22:42.957Z,100647.15
2023-05-14T05:25:12.028Z,100640.41
2023-05-14T05:27:39.649Z,100638.42
2023-05-14T05:30:08.238Z,100636.90
2023-05-14T05:32:36.719Z,100640.19
2023-05-14T05:35:04.863Z,100637.35
2023-05-14T05:37:33.033Z,100637.92
2023-05-14T05:40:00.641Z,100637.02
2023-05-14T05:42:28.294Z,100640.12
2023-05-14T05:44:56.218Z,100638.83
2023-05-14T05:47:24.002Z,100634.90
2023-05-14T05:49:51.676Z,100631.54
2023-05-14T05:52:19.476Z,100626.42
2023-05-14T05:54:47.070Z,100628.02
2023-05-14T05:57:14.642Z,100632.77
2023-05-14T05:59:42.252Z,100627.96
2023-05-14T06:02:09.884Z,100629.38
2023-05-14T06:04:37.557Z,100626.30
2023-05-14T06:07:05.170Z,100631.40
2023-05-14T06:09:32.785Z,100632.88
2023-05-14T06:12:00.543Z,100628.26
2023-05-14T06:14:28.209Z,100629.03
2023-05-14T06:16:55.881Z,100625.38
2023-05-14T06:19:23.992Z,100625.90
2023-05-14T06:21:51.621Z,100626.96
2023-05-14T06:24:20.106Z,100626.23
2023-05-14T06:26:49.276Z,100631.16
2023-05-14T06:29:17.012Z,100628.50
2023-05-14T06:31:46.425Z,100627.33
2023-05-14T06:34:14.142Z,100624.15
2023-05-14T06:36:41.771Z,100621.04
2023-05-14T06:39:09.876Z,100618.02
2023-05-14T06:41:37.501Z,100619.60
2023-05-14T06:44:05.211Z,100618.77
2023-05-14T06:46:32.804Z,100620.52
2023-05-14T06:49:00.489Z,100620.65
2023-05-14T06:51:28.133Z,100619.35
2023-05-14T06:53:56.232Z,100619.95
2023-05-14T06:56:23.913Z,100616.70
2023-05-14T06:58:51.533Z,100615.84
2023-05-14T07:01:19.132Z,100620.17
2023-05-14T07:03:46.770Z,100618.87
2023-05-14T07:06:14.479Z,100615.48
2023-05-14T07:08:45.922Z,100615.66
2023-05-14T07:11:13.843Z,100614.16
2023-05-14T07:13:41.754Z,100615.59
2023-05-14T07:16:12.229Z,100618.23
2023-05-14T07:18:40.297Z,100617.92
2023-05-14T07:21:08.012Z,100609.30
2023-05-14T07:23:38.427Z,100609.20
2023-05-14T07:26:06.942Z,100604.03
2023-05-14T07:28:35.308Z,100600.09
2023-05-14T07:31:08.666Z,100599.65
2023-05-14T07:33:36.601Z,100598.02
2023-05-14T07:36:05.219Z,100595.67
2023-05-14T07:38:32.879Z,100593.13
2023-05-14T07:41:00.480Z,100593.50
2023-05-14T07:43:28.119Z,100587.56
2023-05-14T07:45:56.399Z,100587.55
2023-05-14T07:48:24.044Z,100581.91
2023-05-14T07:50:51.785Z,100585.11
2023-05-14T07:53:19.361Z,100586.98
2023-05-14T07:55:49.109Z,100585.36
2023-05-14T07:58:16.721Z,100577.88
2023-05-14T08:00:44.445Z,100577.94
2023-05-14T08:03:12.203Z,100577.15
2023-05-14T08:05:40.094Z,100570.92
2023-05-14T08:08:07.732Z,100576.21
2023-05-14T08:10:35.640Z,100574.73
2023-05-14T08:13:03.426Z,100571.09
2023-05-14T08:15:31.071Z,100565.30
2023-05-14T08:18:03.399Z,100565.02
2023-05-14T08:20:31.285Z,100564.66
2023-05-14T08:22:58.950Z,100565.71
2023-05-14T08:25:26.588Z,100557.23
2023-05-14T08:27:54.250Z,100558.95
2023-05-14T08:30:22.901Z,100557.98
2023-05-14T08:32:51.733Z,100554.56
2023-05-14T08:35:19.557Z,100555.55
2023-05-14T08:37:47.313Z,100553.48
2023-05-14T08:40:16.536Z,100547.83
2023-05-14T08:42:45.140Z,100545.92
2023-05-14T08:45:21.160Z,100543.45
2023-05-14T08:47:51.054Z,100542.66
2023-05-14T08:50:23.538Z,100537.95
2023-05-14T08:52:52.843Z,100534.61
2023-05-14T08:55:20.962Z,100534.13
2023-05-14T08:57:48.652Z,100528.69
2023-05-14T09:00:16.477Z,100531.73
2023-05-14T09:02:44.771Z,100528.92
2023-05-14T09:05:13.129Z,100531.27
2023-05-14T09:07:41.284Z,100526.88
2023-05-14T09:10:10.374Z,100518.54
2023-05-14T09:12:37.956Z,100519.48
2023-05-14T09:15:06.599Z,100519.37
2023-05-14T09:17:34.666Z,100522.62
2023-05-14T09:20:03.998Z,100518.13
2023-05-14T09:22:34.526Z,100512.60
2023-05-14T09:25:04.685Z,100511.54
2023-05-14T09:27:33.548Z,100516.48
2023-05-14T09:30:17.489Z,100505.59
2023-05-14T09:32:46.032Z,100506.96
2023-05-14T09:35:22.220Z,100510.59
2023-05-14T09:37:52.347Z,100504.52
2023-05-14T09:40:22.323Z,100505.80
2023-05-14T09:42:50.729Z,100491.17
2023-05-14T09:45:18.432Z,100498.49
2023-05-14T09:47:46.363Z,100496.13
2023-05-14T09:50:14.238Z,100493.42
2023-05-14T09:52:42.466Z,100487.46
2023-05-14T09:55:10.116Z,100480.10
2023-05-14T09:57:37.884Z,100486.81
2023-05-14T10:00:06.650Z,100487.86
2023-05-14T10:02:38.872Z,100480.95
2023-05-14T10:05:07.953Z,100475.35
2023-05-14T10:07:48.389Z,100472.34
2023-05-14T10:10:18.973Z,100468.23
2023-05-14T10:12:52.778Z,100470.42
2023-05-14T10:15:49.030Z,100470.02
2023-05-14T10:18:20.251Z,100468.42
2023-05-14T10:20:53.584Z,100462.06
2023-05-14T10:23:21.770Z,100461.02
2023-05-14T10:25:49.989Z,100463.59
2023-05-14T10:28:17.972Z,100457.89
2023-05-14T10:30:49.876Z,100450.34
2023-05-14T10:33:18.698Z,100452.89
2023-05-14T10:36:06.148Z,100458.96
2023-05-14T10:38:35.729Z,100455.41
2023-05-14T10:41:21.340Z,100442.16
2023-05-14T10:43:50.360Z,100443.27
2023-05-14T10:46:18.157Z,100445.31
2023-05-14T10:48:45.817Z,100428.43
2023-05-14T10:51:16.774Z,100437.98
2023-05-14T10:53:45.099Z,100431.31
2023-05-14T10:56:14.323Z,100432.52
2023-05-14T10:58:44.316Z,100433.37
2023-05-14T11:01:13.191Z,100423.22
2023-05-14T11:03:46.062Z,100415.91
2023-05-14T11:06:15.357Z,100422.17
2023-05-14T11:08:44.356Z,100418.48
2023-05-14T11:11:12.090Z,100411.58
2023-05-14T11:13:41.412Z,100408.73
2023-05-14T11:16:21.625Z,100411.20
2023-05-14T11:19:03.330Z,100408.35
2023-05-14T11:21:32.602Z,100399.47
2023-05-14T11:24:01.157Z,100397.92
2023-05-14T11:26:28.910Z,100393.73
2023-05-14T11:28:56.715Z,100390.02
2023-05-14T11:31:25.389Z,100393.39
2023-05-14T11:33:53.544Z,100387.32
2023-05-14T11:36:21.893Z,100386.20
2023-05-14T11:38:51.346Z,100380.64
2023-05-14T11:41:21.398Z,100384.73
2023-05-14T11:43:49.370Z,100382.84
2023-05-14T11:46:21.669Z,100374.08
2023-05-14T11:48:49.544Z,100370.75
2023-05-14T11:51:17.305Z,100369.05
2023-05-14T11:53:45.120Z,100366.82
2023-05-14T11:56:12.834Z,100368.58
2023-05-14T11:58:40.620Z,100364.80
2023-05-14T12:01:13.614Z,100365.64
2023-05-14T12:03:42.221Z,100363.46
2023-05-14T12:06:10.132Z,100357.83
2023-05-14T12:08:37.783Z,100356.24
2023-05-14T12:11:05.468Z,100350.59
2023-05-14T12:13:33.441Z,100356.50
2023-05-14T12:16:02.398Z,100353.79
2023-05-14T12:18:32.400Z,100352.98
2023-05-14T12:21:04.998Z,100349.77
2023-05-14T12:23:33.055Z,100338.95
2023-05-14T12:26:06.839Z,100335.20
2023-05-14T12:28:38.493Z,100329.38
2023-05-14T12:31:06.926Z,100321.45
2023-05-14T12:33:34.760Z,100311.77
2023-05-14T12:36:13.554Z,100307.76
2023-05-14T12:38:49.904Z,100305.41
2023-05-14T12:41:18.097Z,100297.02
2023-05-14T12:43:49.240Z,100294.95
2023-05-14T12:46:17.005Z,100293.55
2023-05-14T12:48:44.854Z,100288.52
2023-05-14T12:51:13.233Z,100287.79
2023-05-14T12:53:41.281Z,100277.30
2023-05-14T12:56:09.572Z,100273.33
2023-05-14T12:58:37.367Z,100273.45
2023-05-14T13:01:05.925Z,100274.95
2023-05-14T13:03:33.686Z,100280.81
2023-05-14T13:06:01.370Z,100280.39
2023-05-14T13:08:28.994Z,100274.70
2023-05-14T13:10:56.763Z,100267.98
2023-05-14T13:13:24.480Z,100265.95
2023-05-14T13:15:53.204Z,100263.25
2023-05-14T13:18:20.955Z,100257.30
2023-05-14T13:20:48.715Z,100243.60
2023-05-14T13:23:16.326Z,100247.18
2023-05-14T13:25:43.928Z,100243.11
2023-05-14T13:28:12.690Z,100238.88
2023-05-14T13:30:40.304Z,100241.02
2023-05-14T13:33:08.057Z,100241.75
2023-05-14T13:35:35.901Z,100241.56
2023-05-14T13:38:03.503Z,100240.75
2023-05-14T13:40:31.131Z,100235.96
2023-05-14T13:42:58.710Z,100230.75
2023-05-14T13:45:26.420Z,100233.54
2023-05-14T13:47:56.440Z,100231.08
2023-05-14T13:50:24.113Z,100218.45
2023-05-14T13:52:52.115Z,100231.98
2023-05-14T13:55:19.709Z,100225.02
2023-05-14T13:57:47.328Z,100228.02
2023-05-14T14:00:15.666Z,100220.11
2023-05-14T14:02:43.335Z,100218.14
2023-05-14T14:05:10.979Z,100217.15
2023-05-14T14:07:40.455Z,100210.82
2023-05-14T14:10:09.085Z,100208.97
2023-05-14T14:12:37.112Z,100211.08
2023-05-14T14:15:06.091Z,100211.26
2023-05-14T14:17:34.885Z,100209.80
2023-05-14T14:20:05.112Z,100206.06
2023-05-14T14:22:32.966Z,100202.77
2023-05-14T14:25:00.866Z,100200.23
2023-05-14T14:27:30.963Z,100197.16
2023-05-14T14:29:58.585Z,100194.46
2023-05-14T14:32:26.337Z,100190.75
2023-05-14T14:34:54.021Z,100188.85
2023-05-14T14:37:23.228Z,100186.77
2023-05-14T14:39:51.079Z,100181.44
2023-05-14T14:42:18.727Z,100183.39
2023-05-14T14:44:46.306Z,100177.58
2023-05-14T14:47:14.039Z,100176.33
2023-05-14T14:49:41.670Z,100177.52
2023-05-14T14:52:09.300Z,100175.59
2023-05-14T14:54:36.899Z,100169.25
2023-05-14T14:57:04.812Z,100170.29
2023-05-14T14:59:32.410Z,100166.95
2023-05-14T15:02:00.066Z,100162.61
2023-05-14T15:04:28.471Z,100161.23
2023-05-14T15:06:56.051Z,100160.73
2023-05-14T15:09:23.628Z,100159.66
2023-05-14T15:11:51.293Z,100158.21
2023-05-14T15:14:19.055Z,100153.61
2023-05-14T15:16:49.523Z,100155.42
2023-05-14T15:19:18.586Z,100154.95
2023-05-14T15:21:46.436Z,100154.54
2023-05-14T15:24:14.091Z,100150.33
2023-05-14T15:26:41.884Z,100151.10
2023-05-14T15:29:09.583Z,100151.69
2023-05-14T15:31:37.286Z,100150.94
2023-05-14T15:34:05.320Z,100154.19
2023-05-14T15:36:32.992Z,100153.48
2023-05-14T15:39:00.671Z,100153.19
2023-05-14T15:41:28.760Z,100150.66
2023-05-14T15:43:58.092Z,100152.88
2023-05-14T15:46:26.600Z,100150.95
2023-05-14T15:48:54.204Z,100146.80
2023-05-14T15:51:21.810Z,100145.58
2023-05-14T15:53:49.546Z,100149.19
2023-05-14T15:56:17.158Z,100142.58
2023-05-14T15:58:44.736Z,100140.24
2023-05-14T16:01:12.700Z,100138.29
2023-05-14T16:03:40.665Z,100135.66
2023-05-14T16:06:08.532Z,100130.86
2023-05-14T16:08:36.105Z,100133.38
2023-05-14T16:11:03.883Z,100132.54
2023-05-14T16:13:31.597Z,100128.56
2023-05-14T16:15:59.636Z,100122.84
2023-05-14T16:18:27.392Z,100119.95
2023-05-14T16:20:56.214Z,100117.11
2023-05-14T16:23:23.807Z,100116.98
2023-05-14T16:25:51.510Z,100111.08
2023-05-14T16:28:19.152Z,100108.40
2023-05-14T16:30:46.811Z,100103.63
2023-05-14T16:33:14.452Z,100101.76
2023-05-14T16:35:42.868Z,100098.02
2023-05-14T16:38:10.557Z,100100.94
2023-05-14T16:40:38.163Z,100096.11
2023-05-14T16:43:06.096Z,100097.19
2023-05-14T16:45:34.887Z,100092.66
2023-05-14T16:48:03.595Z,100094.26
2023-05-14T16:50:31.404Z,100092.93
2023-05-14T16:52:59.025Z,100092.17
2023-05-14T16:55:26.688Z,100088.33
2023-05-14T16:57:54.362Z,100087.66
2023-05-14T17:00:22.034Z,100083.02
2023-05-14T17:02:50.992Z,100080.16
2023-05-14T17:05:18.664Z,100080.05
2023-05-14T17:07:46.413Z,100080.04
2023-05-14T17:10:14.000Z,100076.37
2023-05-14T17:12:41.574Z,100075.23
2023-05-14T17:15:08.992Z,100079.06
2023-05-14T17:17:36.753Z,100081.08
2023-05-14T17:20:08.062Z,100085.00
2023-05-14T17:22:36.030Z,100087.27
2023-05-14T17:25:03.910Z,100083.19
2023-05-14T17:27:33.189Z,100079.30
2023-05-14T17:30:01.277Z,100077.30
2023-05-14T17:32:29.732Z,100075.12
2023-05-14T17:34:57.800Z,100071.39
2023-05-14T17:37:26.716Z,100073.14
2023-05-14T17:39:54.410Z,100072.44
2023-05-14T17:42:22.069Z,100074.93
2023-05-14T17:44:49.693Z,100074.31
2023-05-14T17:47:20.434Z,100070.16
2023-05-14T17:49:48.075Z,100076.77
2023-05-14T17:52:15.653Z,100075.29
2023-05-14T17:54:43.334Z,100075.44
2023-05-14T17:57:11.086Z,100073.64
2023-05-14T17:59:38.728Z,100070.33
2023-05-14T18:02:07.554Z,100073.40
2023-05-14T18:04:35.513Z,100079.62
2023-05-14T18:07:03.252Z,100074.81
2023-05-14T18:09:30.962Z,100078.55
2023-05-14T18:11:58.558Z,100079.47
2023-05-14T18:14:26.230Z,100080.86
2023-05-14T18:16:55.627Z,100079.34
2023-05-14T18:19:23.802Z,100077.64
2023-05-14T18:21:51.441Z,100077.59
2023-05-14T18:24:19.037Z,100078.64
2023-05-14T18:26:46.697Z,100076.48
2023-05-14T18:29:14.399Z,100078.33
2023-05-14T18:31:42.045Z,100076.36
2023-05-14T18:34:09.743Z,100080.91
2023-05-14T18:36:37.704Z,100078.52
2023-05-14T18:39:05.317Z,100081.56
2023-05-14T18:41:32.899Z,100078.30
2023-05-14T18:44:01.890Z,100083.15
2023-05-14T18:46:29.967Z,100086.89
2023-05-14T18:48:57.660Z,100090.88
2023-05-14T18:51:25.316Z,100090.31
2023-05-14T18:53:52.903Z,100085.52
2023-05-14T18:56:21.521Z,100085.29
2023-05-14T18:58:49.213Z,100085.77
2023-05-14T19:01:16.838Z,100085.20
2023-05-14T19:03:44.671Z,100083.20
2023-05-14T19:06:12.488Z,100080.54
2023-05-14T19:08:40.094Z,100083.33
2023-05-14T19:11:07.907Z,100085.62
2023-05-14T19:13:35.596Z,100083.11
2023-05-14T19:16:03.395Z,100080.20
2023-05-14T19:18:31.073Z,100077.81
2023-05-14T19:20:58.996Z,100079.77
2023-05-14T19:23:26.630Z,100074.64
2023-05-14T19:25:54.325Z,100075.95
2023-05-14T19:28:22.213Z,100077.91
2023-05-14T19:30:51.053Z,100073.58
2023-05-14T19:33:19.061Z,100071.54
2023-05-14T19:35:47.358Z,100077.52
2023-05-14T19:38:15.183Z,100076.04
2023-05-14T19:40:43.750Z,100072.70
2023-05-14T19:43:12.892Z,100075.24
2023-05-14T19:45:42.587Z,100074.80
2023-05-14T19:48:12.344Z,100074.22
2023-05-14T19:50:41.345Z,100073.29
2023-05-14T19:53:09.005Z,100074.12
2023-05-14T19:55:36.998Z,100074.30
2023-05-14T19:58:04.881Z,100068.92
2023-05-14T20:00:32.592Z,100068.12
2023-05-14T20:03:00.883Z,100067.02
2023-05-14T20:05:28.896Z,100068.27
2023-05-14T20:07:56.583Z,100064.14
2023-05-14T20:10:24.477Z,100057.16
2023-05-14T20:12:52.261Z,100055.11
2023-05-14T20:15:19.891Z,100051.05
2023-05-14T20:17:47.680Z,100052.65
2023-05-14T20:20:16.571Z,100053.17
2023-05-14T20:22:44.575Z,100046.75
2023-05-14T20:25:12.299Z,100047.17
2023-05-14T20:27:40.071Z,100048.23
2023-05-14T20:30:08.299Z,100047.84
2023-05-14T20:32:35.973Z,100046.41
2023-05-14T20:35:04.427Z,100047.13
2023-05-14T20:37:32.984Z,100044.67
2023-05-14T20:40:02.229Z,100038.26
2023-05-14T20:42:29.943Z,100037.51
2023-05-14T20:44:57.849Z,100036.19
2023-05-14T20:47:26.598Z,100037.61
2023-05-14T20:49:54.384Z,100032.10
2023-05-14T20:52:22.145Z,100032.64
2023-05-14T20:54:49.871Z,100033.57
2023-05-14T20:57:18.448Z,100033.11
2023-05-14T20:59:47.362Z,100032.41
2023-05-14T21:02:15.767Z,100029.33
2023-05-14T21:04:43.729Z,100024.05
2023-05-14T21:07:11.459Z,100020.77
2023-05-14T21:09:39.060Z,100016.21
2023-05-14T21:12:07.196Z,100012.65
2023-05-14T21:14:34.844Z,100012.13
2023-05-14T21:17:02.482Z,100007.73
2023-05-14T21:19:30.148Z,100007.21
2023-05-14T21:21:57.736Z,100004.41
2023-05-14T21:24:25.384Z,100005.61
2023-05-14T21:26:53.665Z,99999.30
2023-05-14T21:29:21.491Z,99999.72
2023-05-14T21:31:49.200Z,99997.27
2023-05-14T21:34:16.826Z,99995.14
2023-05-14T21:36:44.438Z,99994.86
2023-05-14T21:39:12.089Z,99997.77
2023-05-14T21:41:39.765Z,99996.47
2023-05-14T21:44:07.435Z,99996.30
2023-05-14T21:46:35.086Z,99995.30
2023-05-14T21:49:03.062Z,99996.66
2023-05-14T21:51:32.043Z,99992.20
2023-05-14T21:53:59.654Z,99990.63
2023-05-14T21:56:27.417Z,99990.94
2023-05-14T21:58:55.979Z,99985.62
2023-05-14T22:01:23.646Z,99982.23
2023-05-14T22:03:51.316Z,99980.68
2023-05-14T22:06:19.017Z,99977.30
2023-05-14T22:08:46.634Z,99974.05
2023-05-14T22:11:14.299Z,99973.59
2023-05-14T22:13:41.903Z,99969.38
2023-05-14T22:16:13.239Z,99967.32
2023-05-14T22:21:09.192Z,99963.42
2023-05-14T22:23:37.586Z,99960.79
2023-05-14T22:26:05.278Z,99962.10
2023-05-14T22:28:32.885Z,99960.63
2023-05-14T22:31:00.683Z,99957.55
2023-05-14T22:33:28.368Z,99957.27
2023-05-14T22:35:56.026Z,99955.02
2023-05-14T22:38:23.768Z,99953.76
2023-05-14T22:40:51.464Z,99946.91
2023-05-14T22:43:19.076Z,99944.63
2023-05-14T22:45:46.669Z,99941.91
2023-05-14T22:48:14.312Z,99940.04
2023-05-14T22:50:42.014Z,99930.25
2023-05-14T22:53:09.643Z,99931.38
2023-05-14T22:55:37.264Z,99929.56
2023-05-14T22:58:05.572Z,99925.98
2023-05-14T23:00:33.211Z,99919.96
2023-05-14T23:03:01.153Z,99916.80
2023-05-14T23:05:28.860Z,99913.24
2023-05-14T23:07:56.477Z,99909.88
2023-05-14T23:10:24.157Z,99905.59
2023-05-14T23:12:51.762Z,99900.23
2023-05-14T23:15:19.476Z,99898.20
2023-05-14T23:17:47.362Z,99891.79
2023-05-14T23:20:15.044Z,99893.04
2023-05-14T23:22:42.658Z,99885.55
2023-05-14T23:25:10.326Z,99880.80
2023-05-14T23:27:38.041Z,99879.61
2023-05-14T23:30:06.806Z,99875.55
2023-05-14T23:32:34.417Z,99869.04
2023-05-14T23:35:02.074Z,99866.05
2023-05-14T23:37:29.843Z,99859.85
2023-05-14T23:39:57.500Z,99855.00
2023-05-14T23:42:25.527Z,99851.59
2023-05-14T23:44:53.117Z,99847.37
2023-05-14T23:47:20.800Z,99846.05
2023-05-14T23:49:48.539Z,99842.58
2023-05-14T23:52:16.171Z,99839.69
2023-05-14T23:54:43.753Z,99839.55
2023-05-14T23:57:14.215Z,99834.22
2023-05-14T23:59:42.375Z,99828.10
